Time;durP1;ratioP1;P1;durP2;ratioP2;P2;SDS_P1;SDS_P2;PMS_P1;PMS_P2;Temp;Humidity;BMP_temperature;BMP_pressure;BME280_temperature;BME280_humidity;BME280_pressure;Samples;Min_cycle;Max_cycle;Signal;HPM_P1;HPM_P2
2022/12/24 00:02:17;;;;;;;32.85;6.95;;;;;;;10.60;77.96;100575.56;5077731;28;20556;-58
2022/12/24 00:04:42;;;;;;;36.85;6.88;;;;;;;10.65;78.32;100569.22;5092218;28;20085;-58
2022/12/24 00:07:08;;;;;;;35.00;6.75;;;;;;;10.68;78.21;100572.31;5092250;28;20593;-58
2022/12/24 00:09:33;;;;;;;34.10;7.57;;;;;;;10.66;77.88;100574.53;5090541;28;20115;-58
2022/12/24 00:11:58;;;;;;;29.35;6.68;;;;;;;10.69;77.78;100587.91;5086105;28;20109;-58
2022/12/24 00:14:24;;;;;;;27.60;6.45;;;;;;;10.70;77.83;100585.97;5071845;28;20101;-58
2022/12/24 00:16:49;;;;;;;34.78;7.25;;;;;;;10.68;77.80;100577.03;5080535;28;20413;-58
2022/12/24 00:19:14;;;;;;;33.17;7.22;;;;;;;10.73;77.96;100583.50;5091961;28;20074;-58
2022/12/24 00:21:40;;;;;;;33.88;8.32;;;;;;;10.72;77.68;100581.81;5091158;28;20031;-58
2022/12/24 00:24:05;;;;;;;35.47;7.20;;;;;;;10.71;77.79;100582.06;5091815;28;20031;-57
2022/12/24 00:26:32;;;;;;;32.58;6.60;;;;;;;10.69;77.71;100595.38;5089819;28;20028;-57
2022/12/24 00:28:57;;;;;;;27.55;7.30;;;;;;;10.68;77.92;100588.13;5082909;28;20024;-57
2022/12/24 00:31:23;;;;;;;33.45;7.25;;;;;;;10.71;78.35;100593.19;5090496;28;20038;-58
2022/12/24 00:33:49;;;;;;;39.63;7.82;;;;;;;10.67;77.83;100600.34;5089255;28;20038;-58
2022/12/24 00:36:15;;;;;;;29.05;6.50;;;;;;;10.71;77.85;100598.72;5090464;28;20348;-58
2022/12/24 00:38:41;;;;;;;31.80;6.90;;;;;;;10.67;77.92;100597.56;5091123;28;20149;-58
2022/12/24 00:41:23;;;;;;;31.65;6.53;;;;;;;10.67;77.73;100608.69;5090528;28;20488;-58
2022/12/24 00:43:59;;;;;;;31.48;7.15;;;;;;;10.63;77.80;100616.69;5089763;28;20450;-58
2022/12/24 00:46:26;;;;;;;31.48;7.00;;;;;;;10.64;78.16;100614.75;5082608;28;20058;-58
2022/12/24 00:48:52;;;;;;;44.20;8.18;;;;;;;10.63;78.12;100626.94;5091790;28;20106;-58
2022/12/24 00:51:22;;;;;;;32.65;6.70;;;;;;;10.63;77.98;100638.06;5091258;28;20126;-58
2022/12/24 00:53:48;;;;;;;27.08;6.03;;;;;;;10.62;77.94;100633.59;5088179;28;20532;-58
2022/12/24 00:56:13;;;;;;;30.20;7.22;;;;;;;10.60;77.73;100644.13;5092219;28;20111;-58
2022/12/24 00:58:39;;;;;;;33.13;7.00;;;;;;;10.60;77.78;100641.34;5091849;28;20118;-58
2022/12/24 01:01:05;;;;;;;33.47;6.85;;;;;;;10.63;77.66;100638.88;5088776;28;20039;-57
2022/12/24 01:03:36;;;;;;;26.45;7.38;;;;;;;10.66;77.84;100646.69;5086640;28;20032;-58
2022/12/24 01:06:23;;;;;;;26.77;6.93;;;;;;;10.67;77.88;100650.31;5089511;28;20090;-58
2022/12/24 01:08:51;;;;;;;35.03;7.65;;;;;;;10.60;77.20;100658.81;5090687;28;20043;-58
2022/12/24 01:11:17;;;;;;;32.83;7.38;;;;;;;10.63;77.00;100658.31;5071304;28;20032;-58
2022/12/24 01:13:42;;;;;;;33.95;6.75;;;;;;;10.57;76.86;100642.69;5084883;28;20024;-58
2022/12/24 01:16:19;;;;;;;33.83;7.13;;;;;;;10.59;77.84;100657.16;5077952;28;20486;-58
2022/12/24 01:18:44;;;;;;;31.52;7.40;;;;;;;10.57;77.12;100651.00;5085079;28;20100;-58
2022/12/24 01:21:10;;;;;;;37.08;8.02;;;;;;;10.59;77.27;100659.09;5089847;28;20035;-58
2022/12/24 01:23:35;;;;;;;33.97;6.95;;;;;;;10.59;77.15;100667.41;5088593;28;20510;-58
2022/12/24 01:26:03;;;;;;;37.28;7.45;;;;;;;10.59;77.12;100664.66;5091178;28;20031;-58
2022/12/24 01:28:28;;;;;;;34.63;8.90;;;;;;;10.57;77.15;100674.06;5089792;28;20391;-58
2022/12/24 01:30:53;;;;;;;35.28;8.65;;;;;;;10.60;77.17;100681.03;5089915;28;20024;-59
2022/12/24 01:33:19;;;;;;;34.55;7.25;;;;;;;10.54;76.85;100682.91;5090840;28;20020;-57
2022/12/24 01:35:44;;;;;;;36.28;7.65;;;;;;;10.50;77.58;100675.38;5082654;28;20070;-58
2022/12/24 01:38:10;;;;;;;33.58;7.43;;;;;;;10.50;77.27;100690.06;5088738;28;20070;-58
2022/12/24 01:43:22;;;;;;;36.97;7.43;;;;;;;10.52;76.91;100675.94;5090605;28;20106;-58
2022/12/24 01:46:15;;;;;;;35.30;7.47;;;;;;;10.54;77.42;100695.94;5088975;28;20115;-58
2022/12/24 01:48:54;;;;;;;33.97;7.35;;;;;;;10.52;77.36;100693.41;5082731;28;20040;-58
2022/12/24 01:51:50;;;;;;;30.60;6.82;;;;;;;10.57;77.43;100699.06;5089842;28;20387;-58
2022/12/24 01:54:22;;;;;;;33.00;7.32;;;;;;;10.51;77.13;100705.63;5086487;28;20028;-58
2022/12/24 01:56:59;;;;;;;31.27;7.03;;;;;;;10.53;77.48;100703.44;5090257;28;20407;-58
2022/12/24 01:59:27;;;;;;;29.17;6.80;;;;;;;10.55;77.51;100698.47;5087987;28;20031;-58
2022/12/24 02:01:53;;;;;;;35.97;7.25;;;;;;;10.56;77.44;100697.34;5090130;28;20036;-58
2022/12/24 02:04:24;;;;;;;27.85;6.80;;;;;;;10.54;77.64;100704.28;5089769;28;20051;-58
2022/12/24 02:06:50;;;;;;;36.25;8.77;;;;;;;10.52;77.74;100709.22;5088894;28;20426;-58
2022/12/24 02:09:15;;;;;;;32.60;7.13;;;;;;;10.53;77.86;100705.34;5086253;28;20034;-58
2022/12/24 02:11:43;;;;;;;37.00;7.78;;;;;;;10.49;78.02;100713.38;5089968;28;20063;-59
2022/12/24 02:14:10;;;;;;;41.78;7.35;;;;;;;10.49;78.06;100726.38;5089870;28;20031;-58
2022/12/24 02:16:54;;;;;;;40.35;7.70;;;;;;;10.46;78.45;100724.97;5089426;28;20030;-58
2022/12/24 02:19:44;;;;;;;39.88;7.45;;;;;;;10.47;78.42;100728.59;5088496;28;20081;-58
2022/12/24 02:22:47;;;;;;;37.03;7.82;;;;;;;10.53;78.75;100725.66;5087328;28;20132;-58
2022/12/24 02:25:37;;;;;;;36.05;6.80;;;;;;;10.51;78.81;100729.75;5078020;28;20382;-58
2022/12/24 02:28:39;;;;;;;33.30;6.53;;;;;;;10.48;79.09;100731.09;5069944;28;20028;-58
2022/12/24 02:31:11;;;;;;;36.17;8.13;;;;;;;10.48;79.06;100731.09;5081741;28;20445;-58
2022/12/24 02:33:57;;;;;;;37.97;7.90;;;;;;;10.50;79.09;100737.25;5088783;28;20103;-58
2022/12/24 02:36:30;;;;;;;35.38;6.93;;;;;;;10.53;79.32;100736.75;5086608;28;20657;-58
2022/12/24 02:39:04;;;;;;;36.63;7.82;;;;;;;10.50;78.94;100737.25;5069200;28;20032;-58
2022/12/24 02:42:04;;;;;;;34.22;6.50;;;;;;;10.53;79.27;100739.53;5067778;28;20050;-58
2022/12/24 02:44:23;;;;;;;34.08;7.38;;;;;;;10.54;79.27;100738.41;5069848;28;20049;-58
2022/12/24 02:46:50;;;;;;;35.35;6.47;;;;;;;10.53;79.32;100742.28;5068972;28;20029;-57
2022/12/24 02:49:15;;;;;;;32.47;6.60;;;;;;;10.49;79.38;100738.34;5069297;28;20048;-58
2022/12/24 02:51:43;;;;;;;32.78;6.25;;;;;;;10.49;79.51;100740.25;5082259;28;20491;-58
2022/12/24 02:54:10;;;;;;;34.08;6.40;;;;;;;10.53;79.49;100746.97;5087033;28;20093;-58
2022/12/24 02:56:41;;;;;;;38.60;6.93;;;;;;;10.54;79.38;100746.75;5086520;28;20020;-58
2022/12/24 02:59:27;;;;;;;39.45;7.05;;;;;;;10.51;79.85;100752.78;5086184;28;20032;-58
2022/12/24 03:01:55;;;;;;;35.67;7.45;;;;;;;10.48;79.64;100744.13;5088769;28;20032;-58
2022/12/24 03:04:40;;;;;;;40.38;6.18;;;;;;;10.50;79.70;100733.63;5088396;28;20039;-58
2022/12/24 03:07:14;;;;;;;34.67;7.10;;;;;;;10.50;79.82;100744.75;5068800;28;20039;-58
2022/12/24 03:10:19;;;;;;;34.58;6.00;;;;;;;10.57;80.08;100748.16;5081754;28;20024;-58
2022/12/24 03:12:49;;;;;;;37.13;7.32;;;;;;;10.54;79.72;100754.22;5082016;28;20481;-58
2022/12/24 03:15:17;;;;;;;32.13;6.30;;;;;;;10.59;79.89;100751.53;5079533;28;20532;-61
2022/12/24 03:17:46;;;;;;;33.63;6.00;;;;;;;10.59;79.87;100753.47;5089460;28;20031;-58
2022/12/24 03:20:19;;;;;;;30.20;6.10;;;;;;;10.57;80.18;100760.13;5088190;28;20032;-58
2022/12/24 03:22:45;;;;;;;33.65;6.28;;;;;;;10.59;79.93;100756.22;5068787;28;20032;-58
2022/12/24 03:25:11;;;;;;;34.88;6.60;;;;;;;10.52;80.32;100751.69;5069494;28;20032;-58
2022/12/24 03:27:37;;;;;;;29.90;6.30;;;;;;;10.51;80.31;100752.78;5081455;28;20084;-57
2022/12/24 03:30:07;;;;;;;26.02;6.32;;;;;;;10.52;80.54;100754.47;5089112;28;20059;-58
2022/12/24 03:32:32;;;;;;;28.33;6.10;;;;;;;10.56;80.41;100766.75;5088739;28;20028;-58
2022/12/24 03:34:58;;;;;;;28.50;6.10;;;;;;;10.56;80.66;100752.88;5091511;28;20369;-58
2022/12/24 03:37:24;;;;;;;25.63;6.38;;;;;;;10.59;80.32;100765.41;5090976;28;20066;-59
2022/12/24 03:39:49;;;;;;;29.40;5.85;;;;;;;10.59;80.59;100770.94;5091399;28;20032;-59
2022/12/24 03:42:15;;;;;;;29.42;6.72;;;;;;;10.59;80.44;100778.44;5092160;28;20140;-59
2022/12/24 03:44:40;;;;;;;27.80;5.97;;;;;;;10.61;80.57;100773.44;5090949;28;20155;-58
2022/12/24 03:47:05;;;;;;;26.98;5.93;;;;;;;10.63;80.28;100779.59;5093123;28;20044;-59
2022/12/24 03:49:30;;;;;;;27.17;6.65;;;;;;;10.66;80.61;100779.09;5087351;28;20528;-59
2022/12/24 03:51:56;;;;;;;27.70;6.18;;;;;;;10.67;80.53;100784.38;5090925;28;20120;-58
2022/12/24 03:54:21;;;;;;;30.13;6.95;;;;;;;10.62;80.44;100772.38;5092347;28;20104;-58
2022/12/24 03:56:46;;;;;;;35.97;6.45;;;;;;;10.63;80.70;100777.66;5089777;28;20056;-58
2022/12/24 03:59:12;;;;;;;31.63;6.82;;;;;;;10.62;80.93;100783.50;5090661;28;20463;-58
2022/12/24 04:01:37;;;;;;;28.23;6.45;;;;;;;10.63;80.87;100783.22;5091073;28;20064;-58
2022/12/24 04:04:02;;;;;;;27.55;6.32;;;;;;;10.65;81.04;100785.72;5090931;28;20039;-58
2022/12/24 04:06:28;;;;;;;29.75;6.15;;;;;;;10.63;80.86;100791.53;5091976;28;20032;-58
2022/12/24 04:08:53;;;;;;;23.48;6.07;;;;;;;10.64;80.96;100786.84;5086300;28;20123;-58
2022/12/24 04:11:18;;;;;;;28.02;6.40;;;;;;;10.65;80.89;100780.19;5083966;28;20543;-58
2022/12/24 04:13:44;;;;;;;28.13;6.00;;;;;;;10.65;80.97;100789.38;5071597;28;20028;-58
2022/12/24 04:16:12;;;;;;;27.60;6.43;;;;;;;10.65;80.85;100789.38;5078230;28;20051;-58
2022/12/24 04:18:38;;;;;;;29.77;7.00;;;;;;;10.65;81.22;100786.59;5087311;28;20038;-58
2022/12/24 04:21:05;;;;;;;29.55;7.20;;;;;;;10.63;81.06;100791.53;5092397;28;20075;-57
2022/12/24 04:23:33;;;;;;;22.85;5.70;;;;;;;10.65;80.96;100799.59;5090028;28;20032;-58
2022/12/24 04:26:03;;;;;;;26.42;5.88;;;;;;;10.68;81.14;100801.88;5085442;28;20024;-58
2022/12/24 04:28:29;;;;;;;21.73;5.85;;;;;;;10.68;80.95;100811.03;5091468;28;20479;-58
2022/12/24 04:30:58;;;;;;;25.08;6.32;;;;;;;10.69;81.06;100800.78;5092396;28;20028;-57
2022/12/24 04:33:24;;;;;;;24.00;6.25;;;;;;;10.70;80.84;100808.03;5089870;28;20051;-58
2022/12/24 04:35:49;;;;;;;25.92;6.22;;;;;;;10.69;80.92;100804.41;5091031;28;20421;-58
2022/12/24 04:38:15;;;;;;;26.27;6.22;;;;;;;10.69;80.95;100812.75;5091879;28;20463;-58
2022/12/24 04:40:40;;;;;;;27.20;6.70;;;;;;;10.69;80.95;100806.31;5089829;28;20032;-58
2022/12/24 04:43:05;;;;;;;29.75;7.25;;;;;;;10.66;80.96;100809.63;5080383;28;20036;-58
2022/12/24 04:45:31;;;;;;;28.05;7.80;;;;;;;10.61;81.09;100806.75;5071758;28;20383;-58
2022/12/24 04:47:56;;;;;;;33.08;6.47;;;;;;;10.63;80.94;100805.44;5078539;28;20032;-58
2022/12/24 04:50:22;;;;;;;27.00;6.00;;;;;;;10.62;80.94;100806.53;5091684;28;20039;-58
2022/12/24 04:52:47;;;;;;;27.90;6.70;;;;;;;10.62;81.08;100798.19;5090411;28;20483;-57
2022/12/24 04:55:12;;;;;;;29.73;5.95;;;;;;;10.63;80.88;100807.38;5091413;28;20036;-57
2022/12/24 04:57:38;;;;;;;23.10;5.82;;;;;;;10.65;80.84;100817.13;5090768;28;20020;-58
2022/12/24 05:00:05;;;;;;;30.85;6.10;;;;;;;10.65;80.74;100814.34;5086322;28;20060;-58
2022/12/24 05:02:30;;;;;;;26.40;5.13;;;;;;;10.66;80.82;100824.34;5091538;28;20040;-58
2022/12/24 05:04:55;;;;;;;27.88;5.60;;;;;;;10.67;80.65;100828.81;5092026;28;20101;-58
2022/12/24 05:07:21;;;;;;;25.08;6.28;;;;;;;10.62;80.87;100822.34;5090737;28;20506;-58
2022/12/24 05:09:46;;;;;;;28.88;5.60;;;;;;;10.61;80.98;100823.41;5090009;28;20028;-58
2022/12/24 05:12:12;;;;;;;30.48;6.30;;;;;;;10.61;81.30;100828.97;5089647;28;20445;-58
2022/12/24 05:14:38;;;;;;;29.02;5.45;;;;;;;10.63;81.04;100840.66;5087512;28;20024;-58
2022/12/24 05:17:04;;;;;;;24.33;5.30;;;;;;;10.61;81.07;100829.84;5085085;28;20044;-58
2022/12/24 05:19:29;;;;;;;25.75;5.53;;;;;;;10.60;81.09;100830.91;5091712;28;20031;-58
2022/12/24 05:27:23;;;;;;;28.52;6.55;;;;;;;10.62;81.07;100820.41;5089588;28;20032;-58
2022/12/24 05:29:48;;;;;;;29.60;6.72;;;;;;;10.62;80.99;100820.41;5089567;28;20028;-58
2022/12/24 05:32:13;;;;;;;27.25;5.93;;;;;;;10.61;80.93;100823.41;5089735;28;20187;-58
2022/12/24 05:34:39;;;;;;;27.00;5.63;;;;;;;10.56;80.99;100824.19;5084871;28;20025;-58
2022/12/24 05:37:04;;;;;;;30.63;6.50;;;;;;;10.56;80.79;100819.47;5084899;28;20032;-58
2022/12/24 05:39:29;;;;;;;29.70;5.97;;;;;;;10.61;81.11;100828.97;5091094;28;20027;-58
2022/12/24 05:41:54;;;;;;;23.13;4.80;;;;;;;10.59;80.23;100828.41;5089771;28;20032;-58
2022/12/24 05:44:20;;;;;;;29.38;6.38;;;;;;;10.59;80.74;100831.19;5088613;28;20032;-58
2022/12/24 05:46:45;;;;;;;31.30;6.45;;;;;;;10.59;80.53;100829.22;5088351;28;20418;-58
2022/12/24 05:49:11;;;;;;;30.17;5.38;;;;;;;10.59;80.25;100845.06;5087881;28;20115;-58
2022/12/24 05:51:40;;;;;;;27.17;5.70;;;;;;;10.60;80.32;100863.38;5087958;28;20043;-58
2022/12/24 05:54:06;;;;;;;23.38;5.15;;;;;;;10.61;80.38;100863.16;5084322;28;20035;-58
2022/12/24 05:56:31;;;;;;;37.47;6.28;;;;;;;10.62;80.23;100866.75;5075947;28;20025;-58
2022/12/24 05:58:57;;;;;;;24.30;5.43;;;;;;;10.63;80.34;100860.09;5087312;28;20032;-58
2022/12/24 06:01:23;;;;;;;24.23;5.90;;;;;;;10.60;79.99;100860.59;5079608;28;20472;-57
2022/12/24 06:03:49;;;;;;;26.92;5.28;;;;;;;10.56;80.33;100863.88;5069722;28;20130;-58
2022/12/24 06:06:18;;;;;;;26.10;6.13;;;;;;;10.54;80.36;100874.41;5083612;28;20028;-58
2022/12/24 06:08:44;;;;;;;25.88;6.10;;;;;;;10.56;79.87;100880.53;5089317;28;20437;-59
2022/12/24 06:11:11;;;;;;;26.85;6.32;;;;;;;10.50;79.90;100875.16;5088549;28;20032;-57
2022/12/24 06:13:38;;;;;;;31.55;6.47;;;;;;;10.52;79.93;100864.63;5088791;28;20539;-58
2022/12/24 06:16:05;;;;;;;29.80;5.65;;;;;;;10.51;79.85;100866.56;5088040;28;20369;-59
2022/12/24 06:18:32;;;;;;;27.63;6.05;;;;;;;10.53;79.98;100864.41;5085827;28;20036;-59
2022/12/24 06:20:58;;;;;;;36.97;6.32;;;;;;;10.51;79.47;100874.06;5085126;28;20036;-58
2022/12/24 06:23:24;;;;;;;31.08;7.28;;;;;;;10.44;79.03;100878.94;5084676;28;20058;-58
2022/12/24 06:25:50;;;;;;;31.10;6.65;;;;;;;10.39;79.33;100881.63;5087365;28;20062;-58
2022/12/24 06:28:16;;;;;;;29.80;6.38;;;;;;;10.40;79.27;100872.22;5090140;28;20028;-59
2022/12/24 06:30:46;;;;;;;27.38;6.22;;;;;;;10.44;79.53;100879.78;5087135;28;20028;-59
2022/12/24 06:33:11;;;;;;;25.10;5.82;;;;;;;10.43;79.42;100880.03;5083434;28;20032;-59
2022/12/24 06:35:36;;;;;;;36.35;6.80;;;;;;;10.40;79.42;100886.91;5088965;28;20552;-58
2022/12/24 06:38:01;;;;;;;30.23;7.30;;;;;;;10.46;79.06;100898.97;5090066;28;20071;-59
2022/12/24 06:40:27;;;;;;;32.85;7.00;;;;;;;10.44;79.04;100893.66;5086876;28;20113;-58
2022/12/24 06:42:52;;;;;;;32.13;6.68;;;;;;;10.40;78.97;100891.63;5088313;28;20386;-58
2022/12/24 06:45:20;;;;;;;32.83;6.82;;;;;;;10.40;78.81;100905.50;5088061;28;20024;-57
2022/12/24 06:47:45;;;;;;;30.77;7.50;;;;;;;10.38;78.98;100900.22;5087030;28;20028;-58
2022/12/24 06:50:11;;;;;;;33.50;7.32;;;;;;;10.36;79.31;100902.38;5081207;28;20051;-58
2022/12/24 06:52:37;;;;;;;31.70;7.47;;;;;;;10.36;78.95;100899.63;5088855;28;20074;-58
2022/12/24 06:55:02;;;;;;;28.40;7.20;;;;;;;10.39;79.37;100896.34;5087608;28;20036;-58
2022/12/24 06:57:28;;;;;;;31.95;7.00;;;;;;;10.39;79.00;100910.22;5088936;28;20077;-58
2022/12/24 06:59:53;;;;;;;32.95;8.50;;;;;;;10.40;79.26;100905.50;5087806;28;20043;-58
2022/12/24 07:02:18;;;;;;;26.98;6.55;;;;;;;10.41;78.90;100916.34;5087369;28;20050;-58
2022/12/24 07:04:44;;;;;;;33.25;6.63;;;;;;;10.42;79.10;100911.66;5089368;28;20024;-58
2022/12/24 07:07:09;;;;;;;24.95;6.80;;;;;;;10.41;78.92;100908.03;5081512;28;20032;-58
2022/12/24 07:09:34;;;;;;;34.58;8.05;;;;;;;10.44;78.85;100909.47;5075489;28;20032;-58
2022/12/24 07:12:00;;;;;;;25.73;6.90;;;;;;;10.35;78.73;100914.59;5093274;28;20039;-58
2022/12/24 07:14:25;;;;;;;35.63;7.00;;;;;;;10.39;78.96;100920.47;5092808;28;20115;-58
2022/12/24 07:16:51;;;;;;;30.30;7.55;;;;;;;10.38;79.00;100921.59;5093364;28;20031;-58
2022/12/24 07:19:20;;;;;;;37.90;7.53;;;;;;;10.35;79.12;100920.13;5092993;28;20127;-58
2022/12/24 07:21:46;;;;;;;27.58;6.63;;;;;;;10.35;79.01;100922.91;5084882;28;20426;-58
2022/12/24 07:24:11;;;;;;;27.65;7.28;;;;;;;10.37;79.09;100920.72;5081994;28;20036;-59
2022/12/24 07:26:36;;;;;;;34.90;7.03;;;;;;;10.36;79.02;100927.34;5093494;28;20181;-58
2022/12/24 07:29:08;;;;;;;35.15;7.57;;;;;;;10.36;78.67;100930.13;5092532;28;20024;-59
2022/12/24 07:31:33;;;;;;;41.40;7.32;;;;;;;10.32;78.73;100942.81;5093208;28;20030;-58
2022/12/24 07:33:58;;;;;;;32.97;7.47;;;;;;;10.34;78.91;100942.59;5093199;28;20036;-59
2022/12/24 07:36:24;;;;;;;26.25;6.55;;;;;;;10.33;79.08;100952.81;5092265;28;20063;-59
2022/12/24 07:38:52;;;;;;;31.30;6.57;;;;;;;10.31;79.08;100955.84;5082903;28;20491;-60
2022/12/24 07:41:17;;;;;;;32.47;7.20;;;;;;;10.28;79.06;100944.41;5083437;28;20697;-59
2022/12/24 07:43:43;;;;;;;34.65;7.55;;;;;;;10.24;79.16;100952.34;5092380;28;20032;-60
2022/12/24 07:46:08;;;;;;;28.00;7.57;;;;;;;10.24;79.34;100957.91;5093036;28;20107;-60
2022/12/24 07:48:33;;;;;;;31.20;7.20;;;;;;;10.26;79.39;100954.94;5091881;28;20020;-59
2022/12/24 07:50:59;;;;;;;25.42;5.80;;;;;;;10.30;79.24;100970.00;5092229;28;20040;-60
2022/12/24 07:53:26;;;;;;;33.92;7.03;;;;;;;10.32;79.24;100973.34;5093152;28;20103;-60
2022/12/24 07:55:51;;;;;;;34.45;6.38;;;;;;;10.30;79.50;100981.09;5090925;28;20028;-60
2022/12/24 07:58:17;;;;;;;33.90;6.55;;;;;;;10.30;79.29;100981.94;5083510;28;20035;-59
2022/12/24 08:00:42;;;;;;;31.88;6.00;;;;;;;10.26;79.54;100977.97;5089642;28;20064;-60
2022/12/24 08:03:16;;;;;;;34.35;6.63;;;;;;;10.28;79.68;100995.19;5091442;28;20396;-61
2022/12/24 08:05:41;;;;;;;28.90;6.47;;;;;;;10.30;79.81;100995.78;5092257;28;20131;-60
2022/12/24 08:08:07;;;;;;;35.20;5.88;;;;;;;10.32;79.70;101003.84;5092067;28;20119;-60
2022/12/24 08:10:37;;;;;;;37.67;6.95;;;;;;;10.32;79.78;101003.84;5089123;28;20157;-59
2022/12/24 08:13:02;;;;;;;35.33;6.57;;;;;;;10.29;79.68;101018.22;5077653;28;20166;-60
2022/12/24 08:15:27;;;;;;;30.77;5.97;;;;;;;10.29;79.73;101012.66;5081783;28;20111;-60
2022/12/24 08:17:55;;;;;;;28.58;5.97;;;;;;;10.28;79.67;101022.09;5091726;28;20119;-60
2022/12/24 08:20:21;;;;;;;35.47;7.47;;;;;;;10.27;79.86;101023.19;5091373;28;20044;-60
2022/12/24 08:22:46;;;;;;;30.30;6.65;;;;;;;10.30;79.88;101020.78;5089577;28;20068;-59
2022/12/24 08:25:11;;;;;;;34.97;6.82;;;;;;;10.24;79.75;101026.41;5091742;28;20115;-59
2022/12/24 08:27:37;;;;;;;31.80;6.15;;;;;;;10.19;80.06;101034.66;5088103;28;20078;-58
2022/12/24 08:30:07;;;;;;;34.20;6.78;;;;;;;10.22;80.08;101031.38;5073353;28;20115;-59
2022/12/24 08:32:33;;;;;;;35.55;6.45;;;;;;;10.25;80.46;101042.00;5083262;28;20051;-58
2022/12/24 08:34:58;;;;;;;30.05;6.13;;;;;;;10.28;80.18;101044.28;5071737;28;20048;-57
2022/12/24 08:37:24;;;;;;;34.22;6.03;;;;;;;10.28;80.26;101047.91;5087140;28;20027;-56
2022/12/24 08:39:49;;;;;;;30.02;5.82;;;;;;;10.30;80.00;101042.97;5090588;28;20127;-58
2022/12/24 08:42:15;;;;;;;28.67;6.45;;;;;;;10.32;80.06;101045.47;5088161;28;20479;-59
2022/12/24 08:44:40;;;;;;;33.20;6.72;;;;;;;10.35;80.00;101044.16;5082972;28;20479;-58
2022/12/24 08:47:05;;;;;;;36.78;6.72;;;;;;;10.31;80.07;101041.03;5085490;28;20032;-58
2022/12/24 08:49:30;;;;;;;34.20;6.70;;;;;;;10.32;80.26;101039.94;5089310;28;20020;-58
2022/12/24 08:51:56;;;;;;;29.88;7.25;;;;;;;10.34;80.22;101048.03;5087068;28;20071;-59
2022/12/24 08:54:22;;;;;;;38.63;8.43;;;;;;;10.28;80.42;101058.16;5090838;28;20074;-57
2022/12/24 08:56:48;;;;;;;33.75;7.70;;;;;;;10.32;80.50;101059.34;5086065;28;20036;-58
2022/12/24 08:59:13;;;;;;;35.40;10.57;;;;;;;10.33;80.37;101058.25;5084601;28;20043;-57
2022/12/24 09:01:39;;;;;;;38.33;8.93;;;;;;;10.33;80.45;101063.81;5074874;28;20028;-58
2022/12/24 09:04:04;;;;;;;33.83;8.20;;;;;;;10.35;80.32;101060.81;5083946;28;20037;-58
2022/12/24 09:06:31;;;;;;;35.42;8.05;;;;;;;10.35;80.26;101061.63;5089922;28;20024;-58
2022/12/24 09:08:57;;;;;;;31.27;7.97;;;;;;;10.37;80.33;101081.63;5091248;28;20463;-58
2022/12/24 09:11:23;;;;;;;34.15;10.00;;;;;;;10.36;80.29;101074.41;5073769;28;20066;-58
2022/12/24 09:13:51;;;;;;;35.03;9.73;;;;;;;10.36;80.12;101077.19;5070744;28;20043;-58
2022/12/24 09:16:16;;;;;;;36.20;7.88;;;;;;;10.39;80.10;101081.41;5071258;28;20025;-58
2022/12/24 09:18:42;;;;;;;36.42;9.05;;;;;;;10.40;80.47;101096.97;5078582;28;20531;-58
2022/12/24 09:21:13;;;;;;;39.47;11.07;;;;;;;10.41;80.27;101099.47;5087551;28;20027;-58
2022/12/24 09:23:40;;;;;;;42.10;10.77;;;;;;;10.42;80.19;101112.28;5072978;28;20028;-58
2022/12/24 09:26:17;;;;;;;37.42;9.57;;;;;;;10.42;80.33;101117.00;5070408;28;20035;-58
2022/12/24 09:28:43;;;;;;;37.85;9.43;;;;;;;10.45;80.42;101122.03;5069279;28;20028;-58
2022/12/24 09:31:10;;;;;;;36.55;9.57;;;;;;;10.44;80.45;101123.97;5070807;28;20029;-58
2022/12/24 09:33:37;;;;;;;45.38;11.23;;;;;;;10.47;80.61;101122.66;5070815;28;20025;-58
2022/12/24 09:36:04;;;;;;;32.58;9.23;;;;;;;10.50;80.58;101113.84;5078039;28;20075;-58
2022/12/24 09:38:29;;;;;;;34.65;7.38;;;;;;;10.50;80.61;101117.44;5079230;28;20052;-58
2022/12/24 09:40:56;;;;;;;33.63;8.00;;;;;;;10.52;80.65;101128.28;5070358;28;20387;-58
2022/12/24 09:43:25;;;;;;;33.38;6.82;;;;;;;10.57;80.89;101133.94;5069907;28;20029;-58
2022/12/24 09:46:06;;;;;;;38.92;8.07;;;;;;;10.61;80.58;101120.41;5071281;28;20539;-58
2022/12/24 09:48:36;;;;;;;37.70;8.85;;;;;;;10.56;80.46;101140.59;5089410;28;20032;-57
2022/12/24 09:51:09;;;;;;;99.07;39.17;;;;;;;10.59;80.26;101131.78;5090178;28;20487;-57
2022/12/24 09:53:52;;;;;;;44.92;12.35;;;;;;;10.64;80.54;101144.91;5085230;28;20051;-57
2022/12/24 09:56:24;;;;;;;37.35;7.85;;;;;;;10.61;80.36;101150.94;5069786;28;20024;-57
2022/12/24 09:59:03;;;;;;;33.58;7.45;;;;;;;10.62;80.47;101155.44;5070434;28;20035;-57
2022/12/24 10:01:31;;;;;;;30.05;6.72;;;;;;;10.55;80.05;101145.31;5070002;28;20498;-58
2022/12/24 10:04:03;;;;;;;34.50;8.00;;;;;;;10.57;80.09;101173.66;5082467;28;20032;-58
2022/12/24 10:06:36;;;;;;;40.00;8.50;;;;;;;10.57;80.27;101165.34;5086124;28;20038;-57
2022/12/24 10:09:20;;;;;;;36.13;8.00;;;;;;;10.56;80.30;101163.63;5082509;28;20101;-58
2022/12/24 10:11:45;;;;;;;35.63;8.45;;;;;;;10.59;80.09;101165.09;5081002;28;20032;-71
2022/12/24 10:14:25;;;;;;;38.50;8.05;;;;;;;10.61;80.40;101160.16;5070909;28;20947;-73
2022/12/24 10:17:14;;;;;;;30.95;7.15;;;;;;;10.65;80.11;101169.66;5089894;28;20440;-58
2022/12/24 10:20:00;;;;;;;38.05;7.45;;;;;;;10.65;79.93;101166.91;5080511;28;20097;-59
2022/12/24 10:22:51;;;;;;;34.50;7.78;;;;;;;10.65;79.94;101160.47;5084514;28;20086;-60
2022/12/24 10:25:49;;;;;;;33.65;8.52;;;;;;;10.66;79.96;101157.47;5082312;28;20402;-60
2022/12/24 10:28:17;;;;;;;34.92;7.75;;;;;;;10.66;79.91;101156.63;5089546;28;20032;-63
2022/12/24 10:30:48;;;;;;;32.85;7.38;;;;;;;10.69;80.10;101156.09;5088956;28;20399;-60
2022/12/24 10:33:34;;;;;;;34.15;7.70;;;;;;;10.70;79.97;101155.88;5088101;28;20447;-62
2022/12/24 10:36:00;;;;;;;36.85;8.48;;;;;;;10.71;79.77;101146.47;5085644;28;20419;-60
2022/12/24 10:38:25;;;;;;;40.75;8.82;;;;;;;10.75;79.35;101157.91;5087526;28;20028;-59
2022/12/24 10:40:54;;;;;;;29.70;7.28;;;;;;;10.76;79.81;101162.38;5087361;28;20020;-61
2022/12/24 10:43:27;;;;;;;30.90;7.50;;;;;;;10.79;79.62;101161.88;5086101;28;20043;-59
2022/12/24 10:46:00;;;;;;;;;;;;;;;10.90;79.82;101161.00;5085202;28;20035;-60
2022/12/24 10:48:39;;;;;;;42.35;7.93;;;;;;;10.88;79.78;101159.53;5088081;28;20015;-59
2022/12/24 10:51:19;;;;;;;37.38;7.45;;;;;;;10.85;79.38;101171.19;5073433;28;20028;-59
2022/12/24 10:54:38;;;;;;;29.17;6.50;;;;;;;10.87;79.33;101161.47;5083804;28;20032;-59
2022/12/24 10:57:22;;;;;;;33.95;7.70;;;;;;;10.86;79.11;101164.53;5023153;28;20033;-59
2022/12/24 10:59:55;;;;;;;29.08;7.32;;;;;;;10.82;79.14;101170.56;5019800;28;20033;-58
2022/12/24 11:02:32;;;;;;;35.03;7.97;;;;;;;10.86;79.60;101170.06;5062993;28;20100;-57
2022/12/24 11:04:59;;;;;;;34.60;8.32;;;;;;;10.82;79.36;101167.78;5084462;28;20107;-59
2022/12/24 11:07:26;;;;;;;31.80;7.40;;;;;;;10.86;79.07;101179.25;5080029;28;20035;-58
2022/12/24 11:10:03;;;;;;;32.33;7.32;;;;;;;10.82;79.49;101172.50;5077730;28;20039;-58
2022/12/24 11:12:37;;;;;;;25.27;7.00;;;;;;;10.81;79.43;101173.59;5088965;28;20086;-58
2022/12/24 11:15:21;;;;;;;34.78;7.07;;;;;;;10.83;79.71;101174.19;5087476;28;20070;-58
2022/12/24 11:17:59;;;;;;;37.17;7.70;;;;;;;10.83;79.74;101179.72;5087378;28;20043;-59
2022/12/24 11:20:28;;;;;;;33.92;7.47;;;;;;;10.82;79.69;101176.13;5086754;28;20494;-61
2022/12/24 11:22:57;;;;;;;33.20;7.38;;;;;;;10.81;80.02;101173.59;5075839;28;20078;-59
2022/12/24 11:25:27;;;;;;;31.30;6.72;;;;;;;10.85;79.94;101176.72;5082694;28;20256;-61
2022/12/24 11:27:54;;;;;;;32.05;8.18;;;;;;;10.80;79.36;101174.66;5080548;28;20043;-61
2022/12/24 11:30:26;;;;;;;27.98;7.35;;;;;;;10.84;79.91;101192.53;5082535;28;20036;-60
2022/12/24 11:33:14;;;;;;;32.50;7.35;;;;;;;10.89;79.98;101180.69;5076507;28;20031;-59
2022/12/24 11:35:46;;;;;;;35.90;8.13;;;;;;;10.89;79.72;101189.03;5079379;28;20048;-62